createdAt,value
2019-02-09T00:02:09.540Z,-0.64
2019-02-09T00:04:40.429Z,-0.63
2019-02-09T00:07:11.575Z,-0.49
2019-02-09T00:09:42.956Z,-0.44
2019-02-09T00:12:13.634Z,-0.49
2019-02-09T00:14:44.857Z,-0.50
2019-02-09T00:17:15.659Z,-0.44
2019-02-09T00:19:46.645Z,-0.51
2019-02-09T00:22:17.870Z,-0.57
2019-02-09T00:24:48.502Z,-0.63
2019-02-09T00:27:19.493Z,-0.64
2019-02-09T00:29:50.229Z,-0.46
2019-02-09T00:32:20.692Z,-0.52
2019-02-09T00:34:52.114Z,-0.59
2019-02-09T00:37:22.627Z,-0.67
2019-02-09T00:39:53.540Z,-0.72
2019-02-09T00:42:24.712Z,-0.77
2019-02-09T00:44:57.264Z,-0.78
2019-02-09T00:47:29.675Z,-0.76
2019-02-09T00:50:00.771Z,-0.76
2019-02-09T00:52:34.391Z,-0.73
2019-02-09T00:55:06.551Z,-0.73
2019-02-09T00:57:37.480Z,-0.79
2019-02-09T01:00:13.957Z,-0.72
2019-02-09T01:02:46.808Z,-0.75
2019-02-09T01:05:21.073Z,-0.82
2019-02-09T01:07:52.754Z,-0.84
2019-02-09T01:10:24.418Z,-0.85
2019-02-09T01:12:54.790Z,-0.88
2019-02-09T01:15:27.904Z,-0.90
2019-02-09T01:17:58.848Z,-0.91
2019-02-09T01:20:30.398Z,-0.85
2019-02-09T01:23:01.182Z,-0.82
2019-02-09T01:25:31.879Z,-0.79
2019-02-09T01:28:02.832Z,-0.66
2019-02-09T01:30:33.968Z,-0.62
2019-02-09T01:33:05.048Z,-0.65
2019-02-09T01:35:35.930Z,-0.64
2019-02-09T01:38:06.925Z,-0.62
2019-02-09T01:40:37.685Z,-0.63
2019-02-09T01:43:08.973Z,-0.55
2019-02-09T01:45:41.173Z,-0.55
2019-02-09T01:48:12.994Z,-0.54
2019-02-09T01:50:43.955Z,-0.57
2019-02-09T01:53:16.060Z,-0.57
2019-02-09T01:55:46.960Z,-0.55
2019-02-09T01:58:19.942Z,-0.57
2019-02-09T02:00:50.992Z,-0.59
2019-02-09T02:03:22.124Z,-0.39
2019-02-09T02:05:52.939Z,-0.44
2019-02-09T02:08:24.059Z,-0.48
2019-02-09T02:10:55.062Z,-0.53
2019-02-09T02:13:26.286Z,-0.50
2019-02-09T02:15:57.125Z,-0.48
2019-02-09T02:18:28.178Z,-0.41
2019-02-09T02:21:01.057Z,-0.37
2019-02-09T02:23:32.924Z,-0.33
2019-02-09T02:26:03.928Z,-0.30
2019-02-09T02:28:34.783Z,-0.24
2019-02-09T02:31:05.207Z,-0.22
2019-02-09T02:33:36.221Z,-0.17
2019-02-09T02:36:07.233Z,-0.11
2019-02-09T02:38:37.744Z,-0.11
2019-02-09T02:41:09.655Z,-0.09
2019-02-09T02:43:40.582Z,-0.07
2019-02-09T02:46:11.866Z,-0.07
2019-02-09T02:48:42.762Z,-0.07
2019-02-09T02:51:13.335Z,-0.02
2019-02-09T02:53:44.299Z,-0.01
2019-02-09T02:56:15.316Z,0.06
2019-02-09T02:58:46.690Z,0.05
2019-02-09T03:01:17.723Z,0.03
2019-02-09T03:03:48.482Z,0.04
2019-02-09T03:06:19.308Z,0.07
2019-02-09T03:08:50.242Z,0.21
2019-02-09T03:11:21.225Z,0.19
2019-02-09T03:13:52.138Z,0.16
2019-02-09T03:16:23.143Z,0.18
2019-02-09T03:18:54.160Z,0.12
2019-02-09T03:21:25.112Z,0.05
2019-02-09T03:23:55.550Z,0.09
2019-02-09T03:26:26.390Z,0.05
2019-02-09T03:28:57.354Z,0.07
2019-02-09T03:31:28.483Z,0.07
2019-02-09T03:33:59.461Z,0.07
2019-02-09T03:36:30.487Z,0.04
2019-02-09T03:39:01.425Z,0.00
2019-02-09T03:41:32.616Z,0.00
2019-02-09T03:44:03.470Z,0.03
2019-02-09T03:46:34.413Z,0.04
2019-02-09T03:49:05.792Z,0.03
2019-02-09T03:51:36.575Z,0.08
2019-02-09T03:54:07.470Z,0.07
2019-02-09T03:56:37.941Z,0.07
2019-02-09T03:59:08.600Z,0.17
2019-02-09T04:01:40.359Z,0.16
2019-02-09T04:04:11.226Z,0.11
2019-02-09T04:06:42.152Z,0.08
2019-02-09T04:09:12.549Z,0.08
2019-02-09T04:11:43.982Z,0.09
2019-02-09T04:14:14.695Z,0.07
2019-02-09T04:16:45.734Z,0.09
2019-02-09T04:19:16.690Z,0.14
2019-02-09T04:21:47.646Z,0.20
2019-02-09T04:24:18.454Z,0.17
2019-02-09T04:26:49.432Z,0.14
2019-02-09T04:29:20.287Z,0.12
2019-02-09T04:31:50.674Z,0.11
2019-02-09T04:34:21.791Z,0.19
2019-02-09T04:36:53.134Z,0.20
2019-02-09T04:39:23.731Z,0.25
2019-02-09T04:41:54.649Z,0.27
2019-02-09T04:44:25.985Z,0.26
2019-02-09T04:46:56.754Z,0.27
2019-02-09T04:49:27.732Z,0.31
2019-02-09T04:51:58.829Z,0.39
2019-02-09T04:54:29.814Z,0.34
2019-02-09T04:57:00.924Z,0.28
2019-02-09T04:59:33.002Z,0.28
2019-02-09T05:02:05.864Z,0.27
2019-02-09T05:04:36.809Z,0.25
2019-02-09T05:07:07.836Z,0.33
2019-02-09T05:09:38.222Z,0.31
2019-02-09T05:12:09.870Z,0.26
2019-02-09T05:14:40.993Z,0.33
2019-02-09T05:17:13.948Z,0.34
2019-02-09T05:19:44.793Z,0.33
2019-02-09T05:22:16.963Z,0.32
2019-02-09T05:24:49.859Z,0.29
2019-02-09T05:27:22.049Z,0.24
2019-02-09T05:29:53.942Z,0.21
2019-02-09T05:32:24.942Z,0.20
2019-02-09T05:34:56.001Z,0.19
2019-02-09T05:37:28.027Z,0.17
2019-02-09T05:40:00.909Z,0.10
2019-02-09T05:42:31.308Z,0.04
2019-02-09T05:45:03.085Z,0.03
2019-02-09T05:47:34.085Z,0.00
2019-02-09T05:50:05.898Z,-0.04
2019-02-09T05:52:37.992Z,-0.06
2019-02-09T05:55:10.167Z,-0.06
2019-02-09T05:57:40.999Z,-0.03
2019-02-09T06:00:32.138Z,0.01
2019-02-09T06:03:04.080Z,0.05
2019-02-09T06:05:35.293Z,0.09
2019-02-09T06:08:06.223Z,0.10
2019-02-09T06:10:37.889Z,0.10
2019-02-09T06:13:08.276Z,0.14
2019-02-09T06:15:38.668Z,0.11
2019-02-09T06:18:09.100Z,0.11
2019-02-09T06:20:41.279Z,0.14
2019-02-09T06:23:14.112Z,0.15
2019-02-09T06:25:47.218Z,0.16
2019-02-09T06:28:19.213Z,0.25
2019-02-09T06:30:50.257Z,0.27
2019-02-09T06:33:21.177Z,0.25
2019-02-09T06:35:53.400Z,0.27
2019-02-09T06:38:25.312Z,0.28
2019-02-09T06:40:57.287Z,0.29
2019-02-09T06:43:28.198Z,0.30
2019-02-09T06:45:59.316Z,0.35
2019-02-09T06:48:30.748Z,0.37
2019-02-09T06:51:02.264Z,0.43
2019-02-09T06:53:32.675Z,0.45
2019-02-09T06:56:03.334Z,0.53
2019-02-09T06:58:34.314Z,0.63
2019-02-09T07:01:05.569Z,0.72
2019-02-09T07:03:36.187Z,0.76
2019-02-09T07:06:07.316Z,0.83
2019-02-09T07:08:37.969Z,0.92
2019-02-09T07:11:08.484Z,0.99
2019-02-09T07:13:38.861Z,1.03
2019-02-09T07:16:11.257Z,1.09
2019-02-09T07:18:41.720Z,1.15
2019-02-09T07:21:13.343Z,1.21
2019-02-09T07:23:44.291Z,1.27
2019-02-09T07:26:15.311Z,1.32
2019-02-09T07:28:46.281Z,1.39
2019-02-09T07:31:18.750Z,1.42
2019-02-09T07:33:51.624Z,1.56
2019-02-09T07:36:24.642Z,1.58
2019-02-09T07:38:55.507Z,1.57
2019-02-09T07:41:26.486Z,1.56
2019-02-09T07:43:57.666Z,1.62
2019-02-09T07:46:28.578Z,1.61
2019-02-09T07:48:59.439Z,1.61
2019-02-09T07:51:30.652Z,1.62
2019-02-09T07:54:01.554Z,1.69
2019-02-09T07:56:32.524Z,1.68
2019-02-09T07:59:04.825Z,1.71
2019-02-09T08:01:37.725Z,1.79
2019-02-09T08:04:08.801Z,1.80
2019-02-09T08:06:41.544Z,1.75
2019-02-09T08:09:13.788Z,1.81
2019-02-09T08:11:44.564Z,1.90
2019-02-09T08:14:15.729Z,2.00
2019-02-09T08:16:47.608Z,2.19
2019-02-09T08:19:20.674Z,2.43
2019-02-09T08:21:51.792Z,2.60
2019-02-09T08:24:24.326Z,2.83
2019-02-09T08:26:56.654Z,3.12
2019-02-09T08:29:27.831Z,3.12
2019-02-09T08:31:58.753Z,3.36
2019-02-09T08:34:29.807Z,3.36
2019-02-09T08:37:00.758Z,3.47
2019-02-09T08:39:31.785Z,3.70
2019-02-09T08:42:03.718Z,3.72
2019-02-09T08:44:35.706Z,3.72
2019-02-09T08:47:07.950Z,3.86
2019-02-09T08:49:38.341Z,3.86
2019-02-09T08:52:09.760Z,3.81
2019-02-09T08:54:41.900Z,3.95
2019-02-09T08:57:14.902Z,4.28
2019-02-09T08:59:48.008Z,4.28
2019-02-09T09:02:20.830Z,4.42
2019-02-09T09:04:53.418Z,4.59
2019-02-09T09:07:24.002Z,4.76
2019-02-09T09:09:55.260Z,4.85
2019-02-09T09:12:25.965Z,4.90
2019-02-09T09:14:57.086Z,4.97
2019-02-09T09:17:28.205Z,5.02
2019-02-09T09:19:58.990Z,5.02
2019-02-09T09:22:30.035Z,5.05
2019-02-09T09:25:01.098Z,5.12
2019-02-09T09:27:32.150Z,5.14
2019-02-09T09:30:03.218Z,5.23
2019-02-09T09:32:34.072Z,5.29
2019-02-09T09:35:05.321Z,5.39
2019-02-09T09:37:36.053Z,5.51
2019-02-09T09:40:09.497Z,5.48
2019-02-09T09:42:41.938Z,5.51
2019-02-09T09:45:17.288Z,5.42
2019-02-09T09:47:48.115Z,5.39
2019-02-09T09:50:19.829Z,5.35
2019-02-09T09:52:52.114Z,5.44
2019-02-09T09:55:23.133Z,5.44
2019-02-09T09:57:53.494Z,5.58
2019-02-09T10:00:26.300Z,5.77
2019-02-09T10:02:57.847Z,5.94
2019-02-09T10:05:28.215Z,5.94
2019-02-09T10:07:59.237Z,5.94
2019-02-09T10:10:30.173Z,6.06
2019-02-09T10:13:01.297Z,6.31
2019-02-09T10:15:32.275Z,6.43
2019-02-09T10:18:03.288Z,6.48
2019-02-09T10:20:34.235Z,6.51
2019-02-09T10:23:05.279Z,6.71
2019-02-09T10:25:36.646Z,7.06
2019-02-09T10:28:07.347Z,7.18
2019-02-09T10:30:38.384Z,7.27
2019-02-09T10:33:09.408Z,7.24
2019-02-09T10:35:41.328Z,7.20
2019-02-09T10:38:13.760Z,7.38
2019-02-09T10:40:44.498Z,7.54
2019-02-09T10:43:15.434Z,7.78
2019-02-09T10:45:46.847Z,7.97
2019-02-09T10:48:17.419Z,8.09
2019-02-09T10:50:48.897Z,8.17
2019-02-09T10:53:19.322Z,8.24
2019-02-09T10:55:50.459Z,8.15
2019-02-09T10:58:21.387Z,8.05
2019-02-09T11:00:59.177Z,7.73
2019-02-09T11:03:29.536Z,7.61
2019-02-09T11:06:00.357Z,7.49
2019-02-09T11:08:31.551Z,7.30
2019-02-09T11:11:02.654Z,7.19
2019-02-09T11:13:33.374Z,7.15
2019-02-09T11:16:04.454Z,7.05
2019-02-09T11:18:36.393Z,7.07
2019-02-09T11:21:08.416Z,7.13
2019-02-09T11:23:38.869Z,7.25
2019-02-09T11:26:11.571Z,7.30
2019-02-09T11:28:44.522Z,7.36
2019-02-09T11:31:15.534Z,7.42
2019-02-09T11:33:47.451Z,7.44
2019-02-09T11:36:19.596Z,7.77
2019-02-09T11:38:50.969Z,8.00
2019-02-09T11:41:23.226Z,8.38
2019-02-09T11:43:54.044Z,8.36
2019-02-09T11:46:25.754Z,8.44
2019-02-09T11:48:56.150Z,8.45
2019-02-09T11:51:28.790Z,8.55
2019-02-09T11:54:00.748Z,8.51
2019-02-09T11:56:31.649Z,8.70
2019-02-09T11:59:02.583Z,8.69
2019-02-09T12:01:33.628Z,8.58
2019-02-09T12:04:05.025Z,8.32
2019-02-09T12:06:35.630Z,8.14
2019-02-09T12:09:09.472Z,7.99
2019-02-09T12:11:41.771Z,8.23
2019-02-09T12:14:17.288Z,8.03
2019-02-09T12:16:47.732Z,8.15
2019-02-09T12:19:19.829Z,8.20
2019-02-09T12:21:50.887Z,8.21
2019-02-09T12:24:21.832Z,8.12
2019-02-09T12:26:54.827Z,8.25
2019-02-09T12:29:26.447Z,8.27
2019-02-09T12:31:56.899Z,8.36
2019-02-09T12:34:27.916Z,8.62
2019-02-09T12:36:59.189Z,8.78
2019-02-09T12:39:30.225Z,8.94
2019-02-09T12:42:00.956Z,9.12
2019-02-09T12:44:31.983Z,9.09
2019-02-09T12:47:02.900Z,9.36
2019-02-09T12:49:35.519Z,9.36
2019-02-09T12:52:08.068Z,9.32
2019-02-09T12:54:38.522Z,9.25
2019-02-09T12:57:09.875Z,9.22
2019-02-09T12:59:42.411Z,9.05
2019-02-09T13:02:15.074Z,8.80
2019-02-09T13:04:47.934Z,8.67
2019-02-09T13:07:20.132Z,8.60
2019-02-09T13:09:50.622Z,8.40
2019-02-09T13:12:21.116Z,8.19
2019-02-09T13:14:53.796Z,7.98
2019-02-09T13:17:25.099Z,7.89
2019-02-09T13:19:57.115Z,7.80
2019-02-09T13:22:29.234Z,7.78
2019-02-09T13:25:00.101Z,7.85
2019-02-09T13:27:32.997Z,7.89
2019-02-09T13:30:07.447Z,7.95
2019-02-09T13:32:39.284Z,8.03
2019-02-09T13:35:12.344Z,8.26
2019-02-09T13:37:45.027Z,8.46
2019-02-09T13:40:17.575Z,8.62
2019-02-09T13:42:48.089Z,8.87
2019-02-09T13:45:23.449Z,9.05
2019-02-09T13:47:54.101Z,9.14
2019-02-09T13:50:26.847Z,9.43
2019-02-09T13:52:57.230Z,9.82
2019-02-09T13:55:28.277Z,10.11
2019-02-09T13:57:59.205Z,10.16
2019-02-09T14:00:30.380Z,10.09
2019-02-09T14:03:01.331Z,10.29
2019-02-09T14:05:32.481Z,10.39
2019-02-09T14:08:03.350Z,10.09
2019-02-09T14:10:34.234Z,9.82
2019-02-09T14:13:05.377Z,9.57
2019-02-09T14:15:36.363Z,9.43
2019-02-09T14:18:09.106Z,9.52
2019-02-09T14:20:39.550Z,9.44
2019-02-09T14:23:12.372Z,9.40
2019-02-09T14:25:43.369Z,9.41
2019-02-09T14:28:14.271Z,9.11
2019-02-09T14:30:45.458Z,8.99
2019-02-09T14:33:16.343Z,9.04
2019-02-09T14:35:47.421Z,9.03
2019-02-09T14:38:18.521Z,8.92
2019-02-09T14:40:49.458Z,8.87
2019-02-09T14:43:20.356Z,8.87
2019-02-09T14:45:51.490Z,9.56
2019-02-09T14:48:22.405Z,10.65
2019-02-09T14:50:53.379Z,11.07
2019-02-09T14:53:24.430Z,10.71
2019-02-09T14:55:55.551Z,10.29
2019-02-09T14:58:28.518Z,9.99
2019-02-09T15:00:59.518Z,9.83
2019-02-09T15:03:30.949Z,9.64
2019-02-09T15:06:03.427Z,9.48
2019-02-09T15:08:35.458Z,9.26
2019-02-09T15:11:06.491Z,9.06
2019-02-09T15:13:37.592Z,8.87
2019-02-09T15:16:38.806Z,8.65
2019-02-09T15:19:09.569Z,8.52
2019-02-09T15:21:41.578Z,8.35
2019-02-09T15:24:14.326Z,8.34
2019-02-09T15:26:45.524Z,8.23
2019-02-09T15:29:16.623Z,8.04
2019-02-09T15:31:48.542Z,7.87
2019-02-09T15:34:21.625Z,7.85
2019-02-09T15:36:52.554Z,7.75
2019-02-09T15:39:23.690Z,7.57
2019-02-09T15:41:54.955Z,7.45
2019-02-09T15:44:25.796Z,7.37
2019-02-09T15:46:56.748Z,7.29
2019-02-09T15:49:27.966Z,7.28
2019-02-09T15:51:58.745Z,7.19
2019-02-09T15:54:29.615Z,7.19
2019-02-09T15:57:00.667Z,7.10
2019-02-09T15:59:31.553Z,6.98
2019-02-09T16:02:04.276Z,6.92
2019-02-09T16:04:36.790Z,6.82
2019-02-09T16:07:07.770Z,6.74
2019-02-09T16:09:38.706Z,6.79
2019-02-09T16:12:09.700Z,6.74
2019-02-09T16:14:41.790Z,6.61
2019-02-09T16:17:15.056Z,6.52
2019-02-09T16:19:46.233Z,6.37
2019-02-09T16:22:18.831Z,6.29
2019-02-09T16:24:56.083Z,6.24
2019-02-09T16:27:26.928Z,6.11
2019-02-09T16:29:57.892Z,6.11
2019-02-09T16:32:28.783Z,5.95
2019-02-09T16:35:01.447Z,5.88
2019-02-09T16:37:33.889Z,5.86
2019-02-09T16:40:06.533Z,5.81
2019-02-09T16:42:38.863Z,5.76
2019-02-09T16:45:13.617Z,5.64
2019-02-09T16:47:44.938Z,5.62
2019-02-09T16:50:18.713Z,5.55
2019-02-09T16:52:51.166Z,5.55
2019-02-09T16:55:23.022Z,5.58
2019-02-09T16:57:54.004Z,5.67
2019-02-09T17:00:35.907Z,5.58
2019-02-09T17:03:09.140Z,5.50
2019-02-09T17:05:39.667Z,5.52
2019-02-09T17:08:12.994Z,5.63
2019-02-09T17:10:43.951Z,5.74
2019-02-09T17:13:14.872Z,5.75
2019-02-09T17:15:45.883Z,5.74
2019-02-09T17:18:16.717Z,5.58
2019-02-09T17:20:47.740Z,5.72
2019-02-09T17:23:18.216Z,5.66
2019-02-09T17:25:49.702Z,5.57
2019-02-09T17:28:20.814Z,5.55
2019-02-09T17:30:51.955Z,5.43
2019-02-09T17:33:22.946Z,5.37
2019-02-09T17:35:53.917Z,5.39
2019-02-09T17:38:24.951Z,5.43
2019-02-09T17:40:55.968Z,5.37
2019-02-09T17:43:26.975Z,5.39
2019-02-09T17:46:05.209Z,5.39
2019-02-09T17:48:38.249Z,5.31
2019-02-09T17:51:11.159Z,5.32
2019-02-09T17:53:42.292Z,5.34
2019-02-09T17:56:14.287Z,5.27
2019-02-09T17:58:46.290Z,5.26
2019-02-09T18:01:18.230Z,5.26
2019-02-09T18:03:49.886Z,5.31
2019-02-09T18:06:21.230Z,5.31
2019-02-09T18:08:51.892Z,5.27
2019-02-09T18:11:22.360Z,5.26
2019-02-09T18:13:54.078Z,5.28
2019-02-09T18:16:25.656Z,5.34
2019-02-09T18:18:58.365Z,5.34
2019-02-09T18:21:29.405Z,5.39
2019-02-09T18:24:00.300Z,5.41
2019-02-09T18:26:30.877Z,5.36
2019-02-09T18:29:02.393Z,5.23
2019-02-09T18:31:33.438Z,5.19
2019-02-09T18:34:04.474Z,5.12
2019-02-09T18:36:35.532Z,5.06
2019-02-09T18:39:11.592Z,5.04
2019-02-09T18:41:42.525Z,5.02
2019-02-09T18:44:14.535Z,5.03
2019-02-09T18:46:45.393Z,4.97
2019-02-09T18:49:17.669Z,4.93
2019-02-09T18:51:48.514Z,4.87
2019-02-09T18:54:21.924Z,4.89
2019-02-09T18:56:52.939Z,4.86
2019-02-09T18:59:23.490Z,4.86
2019-02-09T19:01:54.406Z,4.82
2019-02-09T19:04:25.576Z,4.84
2019-02-09T19:06:58.457Z,5.12
2019-02-09T19:09:30.651Z,5.18
2019-02-09T19:12:01.652Z,5.15
2019-02-09T19:14:32.678Z,5.14
2019-02-09T19:17:03.721Z,5.16
2019-02-09T19:19:34.575Z,5.16
2019-02-09T19:22:05.664Z,5.12
2019-02-09T19:24:36.590Z,5.14
2019-02-09T19:27:07.920Z,5.28
2019-02-09T19:29:38.471Z,5.20
2019-02-09T19:32:09.474Z,5.06
2019-02-09T19:34:39.963Z,5.02
2019-02-09T19:37:13.209Z,4.99
2019-02-09T19:39:45.715Z,4.94
2019-02-09T19:42:16.691Z,4.91
2019-02-09T19:44:47.722Z,4.92
2019-02-09T19:47:18.925Z,4.88
2019-02-09T19:49:51.797Z,4.91
2019-02-09T19:52:23.657Z,4.89
2019-02-09T19:54:54.715Z,4.88
2019-02-09T19:57:25.838Z,4.86
2019-02-09T19:59:58.723Z,4.90
2019-02-09T20:02:29.898Z,4.82
2019-02-09T20:05:00.812Z,4.85
2019-02-09T20:07:31.860Z,4.84
2019-02-09T20:10:03.022Z,4.78
2019-02-09T20:12:34.034Z,4.77
2019-02-09T20:15:05.703Z,4.67
2019-02-09T20:17:38.845Z,4.58
2019-02-09T20:20:10.637Z,4.57
2019-02-09T20:22:43.187Z,4.59
2019-02-09T20:25:16.357Z,4.58
2019-02-09T20:27:48.009Z,4.62
2019-02-09T20:30:23.681Z,4.60
2019-02-09T20:32:56.812Z,4.58
2019-02-09T20:35:29.927Z,4.51
2019-02-09T20:38:01.054Z,4.47
2019-02-09T20:40:42.842Z,4.42
2019-02-09T20:43:16.353Z,4.45
2019-02-09T20:45:49.181Z,4.46
2019-02-09T20:48:21.991Z,4.42
2019-02-09T20:50:53.684Z,4.41
2019-02-09T20:53:24.780Z,4.42
2019-02-09T20:55:55.464Z,4.38
2019-02-09T20:58:26.043Z,4.41
2019-02-09T21:00:57.126Z,4.38
2019-02-09T21:03:28.216Z,4.35
2019-02-09T21:06:00.147Z,4.43
2019-02-09T21:08:33.083Z,4.54
2019-02-09T21:11:04.124Z,4.54
2019-02-09T21:13:37.044Z,4.52
2019-02-09T21:16:08.215Z,4.37
2019-02-09T21:18:39.282Z,4.36
2019-02-09T21:21:10.102Z,4.42
2019-02-09T21:23:42.236Z,4.35
2019-02-09T21:26:15.175Z,4.25
2019-02-09T21:28:48.084Z,4.25
2019-02-09T21:31:20.203Z,4.19
2019-02-09T21:33:51.237Z,4.17
2019-02-09T21:36:24.350Z,4.13
2019-02-09T21:38:55.137Z,4.10
2019-02-09T21:41:26.492Z,4.16
2019-02-09T21:43:57.224Z,4.19
2019-02-09T21:46:28.634Z,4.20
2019-02-09T21:48:59.633Z,4.14
2019-02-09T21:51:30.280Z,4.20
2019-02-09T21:54:01.614Z,4.13
2019-02-09T21:56:32.238Z,4.00
2019-02-09T21:59:02.970Z,4.00
2019-02-09T22:01:33.390Z,4.08
2019-02-09T22:04:07.337Z,4.01
2019-02-09T22:06:38.715Z,4.01
2019-02-09T22:09:10.303Z,4.02
2019-02-09T22:11:42.470Z,4.02
2019-02-09T22:14:14.542Z,3.93
2019-02-09T22:16:45.478Z,3.83
2019-02-09T22:19:16.354Z,3.78
2019-02-09T22:21:47.668Z,3.78
2019-02-09T22:24:20.012Z,3.77
2019-02-09T22:26:52.423Z,3.77
2019-02-09T22:29:25.425Z,3.73
2019-02-09T22:31:56.554Z,3.79
2019-02-09T22:34:27.502Z,3.69
2019-02-09T22:36:58.505Z,3.70
2019-02-09T22:39:31.100Z,3.64
2019-02-09T22:42:03.813Z,3.53
2019-02-09T22:44:34.304Z,3.53
2019-02-09T22:47:05.120Z,3.64
2019-02-09T22:49:35.659Z,3.64
2019-02-09T22:52:06.596Z,3.61
2019-02-09T22:54:37.571Z,3.61
2019-02-09T22:57:08.498Z,3.56
2019-02-09T22:59:39.245Z,3.56
2019-02-09T23:02:09.809Z,3.57
2019-02-09T23:05:00.935Z,3.51
2019-02-09T23:07:35.484Z,3.41
2019-02-09T23:10:12.162Z,3.36
2019-02-09T23:12:48.382Z,3.29
2019-02-09T23:15:14.699Z,3.20
2019-02-09T23:17:45.581Z,3.13
2019-02-09T23:20:19.184Z,3.07
2019-02-09T23:22:50.599Z,3.07
2019-02-09T23:25:21.656Z,2.94
2019-02-09T23:27:52.685Z,2.94
2019-02-09T23:30:23.829Z,2.74
2019-02-09T23:32:54.815Z,2.78
2019-02-09T23:35:25.790Z,2.78
2019-02-09T23:37:56.736Z,2.67
2019-02-09T23:40:27.913Z,2.57
2019-02-09T23:42:58.780Z,2.51
2019-02-09T23:45:29.878Z,2.48
2019-02-09T23:48:00.946Z,2.52
2019-02-09T23:50:33.910Z,2.48
2019-02-09T23:53:05.769Z,2.33
2019-02-09T23:55:40.502Z,2.23
2019-02-09T23:58:12.872Z,2.08
